Time;durP1;ratioP1;P1;durP2;ratioP2;P2;SDS_P1;SDS_P2;PMS_P1;PMS_P2;Temp;Humidity;BMP_temperature;BMP_pressure;BME280_temperature;BME280_humidity;BME280_pressure;Samples;Min_cycle;Max_cycle;Signal;HPM_P1;HPM_P2
2022/03/20 00:00:43;;;;;;;8.85;5.10;;;8.40;38.20;;;;;;2277477;54;21127;-66
2022/03/20 00:03:10;;;;;;;7.37;4.60;;;8.30;38.30;;;;;;2309005;54;21003;-64
2022/03/20 00:05:58;;;;;;;8.95;5.00;;;8.30;38.40;;;;;;2282758;55;21041;-66
2022/03/20 00:08:57;;;;;;;9.90;4.90;;;8.20;38.30;;;;;;2294514;54;21395;-63
2022/03/20 00:11:27;;;;;;;7.43;4.05;;;8.20;38.80;;;;;;2295809;54;20999;-64
2022/03/20 00:13:55;;;;;;;8.40;4.72;;;8.10;38.50;;;;;;2237362;56;21001;-65
2022/03/20 00:16:31;;;;;;;10.82;5.95;;;8.10;38.70;;;;;;2242409;56;21595;-66
2022/03/20 00:18:58;;;;;;;9.55;5.72;;;8.00;38.80;;;;;;2270224;55;21551;-65
2022/03/20 00:21:25;;;;;;;10.60;5.20;;;8.00;39.00;;;;;;2258079;56;20986;-65
2022/03/20 00:23:51;;;;;;;8.18;4.95;;;8.00;39.10;;;;;;2255811;56;21102;-64
2022/03/20 00:26:18;;;;;;;9.18;5.05;;;8.00;39.20;;;;;;2264378;55;21007;-66
2022/03/20 00:28:45;;;;;;;7.78;4.65;;;8.00;39.30;;;;;;2310135;54;21010;-66
2022/03/20 00:31:14;;;;;;;8.20;4.55;;;8.00;39.50;;;;;;2260879;55;20974;-66
2022/03/20 00:33:41;;;;;;;11.18;5.53;;;8.00;39.50;;;;;;2259328;55;20930;-65
2022/03/20 00:36:10;;;;;;;12.40;6.32;;;8.00;39.60;;;;;;2258691;55;21279;-65
2022/03/20 00:38:38;;;;;;;9.18;6.00;;;8.00;39.80;;;;;;2259464;55;20975;-67
2022/03/20 00:41:27;;;;;;;9.30;5.35;;;8.00;39.80;;;;;;2259598;55;21007;-65
2022/03/20 00:43:54;;;;;;;8.98;5.62;;;8.00;40.10;;;;;;2273029;56;21010;-64
2022/03/20 00:46:23;;;;;;;8.20;4.50;;;8.10;39.90;;;;;;2344807;55;21858;-64
2022/03/20 00:48:50;;;;;;;8.15;4.50;;;8.10;40.00;;;;;;2250930;55;21010;-64
2022/03/20 00:51:17;;;;;;;8.93;5.00;;;8.10;40.00;;;;;;2261511;55;21011;-64
2022/03/20 00:53:46;;;;;;;8.70;4.87;;;8.10;40.10;;;;;;2247645;56;21003;-66
2022/03/20 00:56:14;;;;;;;8.02;4.87;;;8.10;40.20;;;;;;2268949;55;20981;-66
2022/03/20 00:58:41;;;;;;;8.32;4.97;;;8.10;40.30;;;;;;2366311;54;20941;-66
2022/03/20 01:01:09;;;;;;;7.93;4.68;;;8.10;40.30;;;;;;2280401;55;21046;-64
2022/03/20 01:03:36;;;;;;;7.70;4.93;;;8.20;40.40;;;;;;2282712;56;20990;-66
2022/03/20 01:06:02;;;;;;;8.40;4.95;;;8.20;40.40;;;;;;2255973;55;21006;-64
2022/03/20 01:08:30;;;;;;;9.52;4.80;;;8.20;40.50;;;;;;2335235;54;20993;-64
2022/03/20 01:10:56;;;;;;;7.93;5.10;;;8.20;40.50;;;;;;2306802;54;20941;-66
2022/03/20 01:13:24;;;;;;;8.60;4.85;;;8.20;40.50;;;;;;2289074;56;20985;-64
2022/03/20 01:15:51;;;;;;;7.62;4.60;;;8.20;40.60;;;;;;2288161;55;20990;-65
2022/03/20 01:18:19;;;;;;;8.68;4.90;;;8.30;40.70;;;;;;2305353;54;21053;-66
2022/03/20 01:20:49;;;;;;;9.80;5.28;;;8.30;40.70;;;;;;2286253;56;20998;-66
2022/03/20 01:23:26;;;;;;;7.82;4.75;;;8.30;40.80;;;;;;2289084;56;21894;-65
2022/03/20 01:25:55;;;;;;;9.40;5.28;;;8.30;40.90;;;;;;2281683;55;21032;-64
2022/03/20 01:28:23;;;;;;;8.35;4.90;;;8.30;40.70;;;;;;2286701;56;21041;-64
2022/03/20 01:30:49;;;;;;;8.77;5.25;;;8.30;40.80;;;;;;2285626;55;20977;-63
2022/03/20 01:33:17;;;;;;;9.52;5.68;;;8.30;40.80;;;;;;2290704;55;21038;-65
2022/03/20 01:35:45;;;;;;;10.40;5.72;;;8.30;40.90;;;;;;2280788;55;21477;-65
2022/03/20 01:38:15;;;;;;;9.70;5.25;;;8.30;41.00;;;;;;2272925;55;21046;-66
2022/03/20 01:40:44;;;;;;;12.40;6.22;;;8.30;41.00;;;;;;2288258;55;21025;-64
2022/03/20 01:43:10;;;;;;;8.95;5.85;;;8.40;41.20;;;;;;2306888;54;21012;-63
2022/03/20 01:45:37;;;;;;;8.38;5.03;;;8.30;41.20;;;;;;2285057;55;21066;-65
2022/03/20 01:48:04;;;;;;;8.20;5.07;;;8.40;41.20;;;;;;2289387;56;20961;-64
2022/03/20 01:50:33;;;;;;;8.73;4.95;;;8.30;41.20;;;;;;2287564;55;20937;-66
2022/03/20 01:53:03;;;;;;;9.52;5.75;;;8.40;41.30;;;;;;2288212;56;20952;-65
2022/03/20 01:55:30;;;;;;;8.93;5.65;;;8.40;41.30;;;;;;2282949;55;20994;-66
2022/03/20 01:57:57;;;;;;;9.43;5.50;;;8.40;41.30;;;;;;2281815;55;21015;-65
2022/03/20 02:00:25;;;;;;;8.38;5.30;;;8.40;41.30;;;;;;2313342;54;20989;-66
2022/03/20 02:02:52;;;;;;;11.23;5.55;;;8.50;41.30;;;;;;2277627;55;21030;-63
2022/03/20 02:05:19;;;;;;;8.60;5.30;;;8.50;41.40;;;;;;2289292;56;20969;-66
2022/03/20 02:08:07;;;;;;;9.63;4.87;;;8.50;41.40;;;;;;2260490;56;21081;-65
2022/03/20 02:10:52;;;;;;;8.30;4.78;;;8.50;41.60;;;;;;2287403;56;21001;-66
2022/03/20 02:13:22;;;;;;;9.60;5.10;;;8.60;41.60;;;;;;2287073;55;21003;-63
2022/03/20 02:15:52;;;;;;;8.77;5.37;;;8.60;41.50;;;;;;2332600;54;21877;-65
2022/03/20 02:18:37;;;;;;;8.35;5.05;;;8.60;41.50;;;;;;2299578;56;21778;-65
2022/03/20 02:21:03;;;;;;;9.93;5.60;;;8.60;41.70;;;;;;2289537;56;20962;-64
2022/03/20 02:23:39;;;;;;;8.60;5.10;;;8.60;41.40;;;;;;2315543;54;20998;-64
2022/03/20 02:26:05;;;;;;;8.30;5.12;;;8.60;41.60;;;;;;2288949;56;20985;-65
2022/03/20 02:28:32;;;;;;;10.63;6.12;;;8.60;41.40;;;;;;2282329;55;21018;-64
2022/03/20 02:34:39;;;;;;;10.05;5.80;;;8.60;41.70;;;;;;2283888;55;21438;-64
2022/03/20 02:37:06;;;;;;;10.20;5.62;;;8.70;41.40;;;;;;2283013;55;20966;-65
2022/03/20 02:39:42;;;;;;;9.88;5.75;;;8.60;41.30;;;;;;2289627;56;20942;-66
2022/03/20 02:42:09;;;;;;;12.13;6.75;;;8.60;41.50;;;;;;2281898;55;21973;-64
2022/03/20 02:45:36;;;;;;;12.93;7.45;;;8.60;41.40;;;;;;2288137;55;20961;-65
2022/03/20 02:48:04;;;;;;;11.45;7.12;;;8.70;41.90;;;;;;2288001;54;21029;-66
2022/03/20 02:50:35;;;;;;;10.43;6.62;;;8.70;41.50;;;;;;2289234;56;21035;-63
2022/03/20 02:53:03;;;;;;;12.23;7.37;;;8.70;41.60;;;;;;2289718;56;20946;-66
2022/03/20 02:55:37;;;;;;;11.60;6.97;;;8.70;41.60;;;;;;2290311;55;21007;-64
2022/03/20 02:58:05;;;;;;;11.98;6.68;;;8.70;41.80;;;;;;2276764;55;21029;-66
2022/03/20 03:00:33;;;;;;;11.75;6.50;;;8.80;41.90;;;;;;2251707;55;20978;-65
2022/03/20 03:03:00;;;;;;;10.88;6.47;;;8.80;41.90;;;;;;2269516;55;21055;-64
2022/03/20 03:05:58;;;;;;;13.30;8.20;;;8.90;42.00;;;;;;2279908;55;21391;-64
2022/03/20 03:11:13;;;;;;;16.50;10.10;;;8.90;41.90;;;;;;2309213;54;22129;-66
2022/03/20 03:13:39;;;;;;;13.07;8.55;;;9.00;41.90;;;;;;2291042;54;21812;-65
2022/03/20 03:16:21;;;;;;;16.08;9.80;;;9.00;41.80;;;;;;2277546;55;20951;-66
2022/03/20 03:18:48;;;;;;;14.40;9.48;;;9.10;41.90;;;;;;2285647;56;20997;-65
2022/03/20 03:21:16;;;;;;;14.75;8.73;;;9.10;41.80;;;;;;2347806;54;20958;-67
2022/03/20 03:23:43;;;;;;;14.23;8.07;;;9.20;41.80;;;;;;2286061;56;21041;-66
2022/03/20 03:26:11;;;;;;;15.00;9.00;;;9.20;41.60;;;;;;2288082;55;20977;-63
2022/03/20 03:28:47;;;;;;;12.57;8.20;;;9.30;41.60;;;;;;2289730;56;21022;-66
2022/03/20 03:31:18;;;;;;;14.23;7.90;;;9.30;41.50;;;;;;2289797;56;21009;-65
2022/03/20 03:37:50;;;;;;;;;;;;;;;;;;;;;
2022/03/20 03:40:25;;;;;;;11.68;7.07;;;9.40;41.50;;;;;;2289619;56;20993;-65
2022/03/20 03:42:53;;;;;;;12.05;6.78;;;9.40;41.40;;;;;;2341294;54;21902;-66
2022/03/20 03:45:23;;;;;;;11.98;7.18;;;9.40;41.40;;;;;;2288199;56;20997;-66
2022/03/20 03:47:50;;;;;;;11.68;6.72;;;9.40;41.40;;;;;;2290146;56;21021;-65
2022/03/20 03:50:17;;;;;;;12.60;7.30;;;9.40;41.40;;;;;;2289684;56;21020;-65
2022/03/20 03:52:47;;;;;;;11.25;6.50;;;9.30;41.20;;;;;;2304132;54;21407;-64
2022/03/20 03:55:14;;;;;;;11.60;7.20;;;9.30;41.20;;;;;;2288173;55;21047;-65
2022/03/20 03:58:34;;;;;;;13.10;7.65;;;9.30;41.20;;;;;;2288331;55;21088;-64
2022/03/20 04:01:01;;;;;;;9.98;6.57;;;9.30;41.40;;;;;;2289234;56;21017;-65
2022/03/20 04:03:28;;;;;;;10.90;7.10;;;9.20;41.10;;;;;;2289730;55;21025;-63
2022/03/20 04:05:57;;;;;;;13.75;7.50;;;9.20;41.10;;;;;;2289386;55;21131;-66
2022/03/20 04:08:24;;;;;;;12.18;7.60;;;9.10;41.10;;;;;;2287742;56;21316;-63
2022/03/20 04:10:51;;;;;;;10.65;6.40;;;9.00;41.00;;;;;;2309024;54;21018;-66
2022/03/20 04:13:31;;;;;;;11.73;7.60;;;8.90;41.00;;;;;;2390476;54;21002;-64
2022/03/20 04:15:57;;;;;;;11.63;7.10;;;8.80;41.40;;;;;;2287728;55;21036;-65
2022/03/20 04:18:26;;;;;;;9.23;5.95;;;8.70;41.20;;;;;;2336025;53;20910;-66
2022/03/20 04:21:05;;;;;;;11.35;6.20;;;8.70;41.40;;;;;;2290667;54;21402;-64
2022/03/20 04:23:50;;;;;;;13.70;7.55;;;8.60;41.70;;;;;;2271750;55;20998;-65
2022/03/20 04:26:37;;;;;;;10.68;6.57;;;8.60;41.60;;;;;;2348332;54;21077;-66
2022/03/20 04:32:32;;;;;;;12.13;7.43;;;8.50;42.10;;;;;;2289852;55;21034;-65
2022/03/20 04:34:59;;;;;;;13.10;8.45;;;8.50;41.90;;;;;;2260269;55;21025;-63
2022/03/20 04:37:26;;;;;;;12.37;7.80;;;8.40;41.90;;;;;;2287952;56;21403;-65
2022/03/20 04:39:53;;;;;;;13.07;7.78;;;8.40;42.00;;;;;;2280289;55;20983;-65
2022/03/20 04:42:21;;;;;;;12.37;7.35;;;8.30;42.10;;;;;;2264429;55;21813;-65
2022/03/20 04:45:06;;;;;;;12.20;7.57;;;8.30;42.20;;;;;;2286994;56;20946;-66
2022/03/20 04:58:35;;;;;;;12.35;7.07;;;8.30;42.80;;;;;;2260465;56;20970;-65
2022/03/20 05:01:23;;;;;;;13.13;7.70;;;8.30;42.90;;;;;;2285352;55;20967;-63
2022/03/20 05:03:49;;;;;;;12.63;7.65;;;8.40;43.30;;;;;;2288866;56;21024;-64
2022/03/20 05:06:16;;;;;;;14.30;8.32;;;8.40;43.10;;;;;;2289802;56;20980;-65
2022/03/20 05:08:43;;;;;;;15.75;7.95;;;8.40;43.10;;;;;;2290399;55;21005;-66
2022/03/20 05:14:12;;;;;;;;;;;8.40;43.20;;;;;;2289608;55;20935;-64
2022/03/20 05:17:04;;;;;;;10.20;5.35;;;8.50;43.60;;;;;;2290003;56;20104;-64
2022/03/20 05:19:33;;;;;;;10.50;6.20;;;8.50;43.50;;;;;;2289093;56;21022;-64
2022/03/20 05:22:01;;;;;;;10.95;6.65;;;8.50;43.30;;;;;;2287433;56;22210;-65
2022/03/20 05:24:37;;;;;;;11.30;6.87;;;8.50;43.40;;;;;;2285937;55;20957;-64
2022/03/20 05:27:28;;;;;;;9.68;5.72;;;8.50;43.50;;;;;;2289196;56;21901;-64
2022/03/20 05:29:54;;;;;;;9.43;5.55;;;8.50;43.60;;;;;;2291117;56;21878;-66
2022/03/20 05:32:21;;;;;;;11.35;6.05;;;8.50;43.50;;;;;;2278838;55;21834;-64
2022/03/20 05:34:48;;;;;;;10.23;6.43;;;8.60;44.30;;;;;;2288799;56;21053;-65
2022/03/20 05:37:15;;;;;;;10.35;6.75;;;8.60;43.70;;;;;;2289517;56;21292;-65
2022/03/20 05:39:42;;;;;;;10.40;6.55;;;8.60;43.90;;;;;;2306033;54;21032;-65
2022/03/20 05:42:08;;;;;;;10.30;6.28;;;8.70;44.00;;;;;;2285442;55;20964;-66
2022/03/20 05:44:35;;;;;;;11.07;6.78;;;8.70;44.00;;;;;;2290683;55;20961;-65
2022/03/20 05:47:04;;;;;;;10.68;6.12;;;8.70;44.00;;;;;;2309861;55;21039;-65
2022/03/20 05:49:33;;;;;;;11.27;6.37;;;8.70;44.00;;;;;;2260493;55;20986;-65
2022/03/20 05:52:13;;;;;;;11.25;6.78;;;8.70;44.00;;;;;;2397623;54;20985;-66
2022/03/20 05:54:40;;;;;;;13.30;7.50;;;8.80;44.40;;;;;;2279457;55;21533;-66
2022/03/20 06:00:16;;;;;;;15.48;7.70;;;8.80;44.40;;;;;;2289020;55;20965;-63
2022/03/20 06:02:46;;;;;;;11.27;7.35;;;8.80;44.80;;;;;;2320905;54;21036;-66
2022/03/20 06:05:17;;;;;;;13.83;7.30;;;8.90;44.70;;;;;;2257678;56;21033;-64
2022/03/20 06:07:47;;;;;;;11.07;6.80;;;8.90;44.80;;;;;;2255858;56;21026;-65
2022/03/20 06:10:17;;;;;;;12.48;7.20;;;8.90;44.90;;;;;;2268782;56;21026;-64
2022/03/20 06:12:45;;;;;;;12.07;7.95;;;8.90;44.90;;;;;;2277531;55;21049;-63
2022/03/20 06:15:12;;;;;;;14.52;8.13;;;8.90;45.10;;;;;;2321193;55;21007;-64
2022/03/20 06:17:40;;;;;;;15.10;8.32;;;8.90;45.20;;;;;;2237537;56;20948;-63
2022/03/20 06:20:07;;;;;;;13.95;8.90;;;8.90;45.30;;;;;;2256490;57;21014;-63
2022/03/20 06:22:37;;;;;;;13.75;8.75;;;9.00;45.50;;;;;;2276346;55;20998;-64
2022/03/20 06:25:07;;;;;;;16.55;9.63;;;9.00;45.60;;;;;;2296282;55;20977;-64
2022/03/20 06:31:01;;;;;;;13.70;8.82;;;9.10;46.70;;;;;;2291757;55;21815;-66
2022/03/20 06:33:37;;;;;;;15.38;9.38;;;9.20;46.20;;;;;;2282579;55;20987;-64
2022/03/20 06:36:09;;;;;;;12.35;7.90;;;9.20;46.30;;;;;;2276134;55;21014;-66
2022/03/20 06:38:36;;;;;;;12.88;7.50;;;9.30;46.50;;;;;;2280032;55;21034;-65
2022/03/20 06:41:04;;;;;;;16.10;9.95;;;9.30;46.40;;;;;;2268386;54;20955;-66
2022/03/20 06:43:31;;;;;;;15.82;10.23;;;9.30;46.50;;;;;;2279810;55;21095;-66
2022/03/20 06:45:59;;;;;;;16.45;10.63;;;9.40;46.70;;;;;;2294303;56;21029;-66
2022/03/20 06:48:38;;;;;;;16.87;10.27;;;9.50;46.80;;;;;;2301012;56;21576;-64
2022/03/20 06:51:05;;;;;;;14.38;8.93;;;9.50;46.80;;;;;;2392590;53;21925;-64
2022/03/20 06:53:38;;;;;;;14.90;9.88;;;9.60;46.80;;;;;;2284397;55;21013;-64
2022/03/20 06:56:06;;;;;;;13.57;8.65;;;9.60;46.80;;;;;;2360083;54;20997;-64
2022/03/20 06:58:43;;;;;;;13.80;9.55;;;9.60;46.70;;;;;;2298394;55;21085;-65
2022/03/20 07:01:10;;;;;;;14.43;8.65;;;9.70;46.80;;;;;;2292079;55;20955;-64
2022/03/20 07:03:39;;;;;;;12.32;7.57;;;9.70;46.80;;;;;;2304590;55;21004;-64
2022/03/20 07:06:06;;;;;;;13.80;8.82;;;9.70;46.70;;;;;;2356405;54;20961;-66
2022/03/20 07:08:33;;;;;;;13.82;8.82;;;9.70;47.20;;;;;;2304839;55;21013;-64
2022/03/20 07:11:02;;;;;;;13.93;8.77;;;9.80;46.80;;;;;;2333418;54;20985;-66
2022/03/20 07:13:48;;;;;;;15.48;9.10;;;9.80;46.90;;;;;;2280930;55;21258;-66
2022/03/20 07:16:59;;;;;;;13.60;7.12;;;9.80;46.90;;;;;;2306524;55;20973;-65
2022/03/20 07:19:48;;;;;;;15.35;8.00;;;9.80;47.40;;;;;;2283650;56;20968;-63
2022/03/20 07:22:15;;;;;;;13.15;8.02;;;9.90;47.50;;;;;;2298760;56;20961;-64
2022/03/20 07:24:48;;;;;;;13.00;7.37;;;9.90;47.10;;;;;;2407640;54;21066;-66
2022/03/20 07:30:09;;;;;;;15.70;9.23;;;9.90;47.40;;;;;;2305421;55;21037;-66
2022/03/20 07:32:36;;;;;;;16.75;9.85;;;10.00;46.60;;;;;;2299599;56;20950;-65
2022/03/20 07:35:02;;;;;;;17.75;10.30;;;10.00;46.70;;;;;;2451509;54;20949;-65
2022/03/20 07:37:29;;;;;;;16.20;10.20;;;10.00;47.40;;;;;;2288576;55;21002;-66
2022/03/20 07:39:56;;;;;;;16.67;10.32;;;10.10;46.80;;;;;;2281844;55;21008;-66
2022/03/20 07:42:26;;;;;;;15.50;9.93;;;10.10;46.80;;;;;;2281072;55;20991;-64
2022/03/20 07:44:53;;;;;;;16.83;10.95;;;10.20;47.00;;;;;;2300668;55;21978;-65
2022/03/20 07:47:20;;;;;;;16.30;10.90;;;10.20;47.00;;;;;;2299363;56;20974;-65
2022/03/20 07:49:48;;;;;;;16.20;10.18;;;10.20;47.00;;;;;;2277040;55;20968;-65
2022/03/20 07:52:15;;;;;;;15.95;10.00;;;10.30;46.90;;;;;;2287275;55;20953;-66
2022/03/20 07:54:45;;;;;;;15.45;10.00;;;10.30;46.90;;;;;;2466430;53;20980;-67
2022/03/20 07:57:11;;;;;;;15.15;9.75;;;10.30;46.90;;;;;;2293276;55;20945;-65
2022/03/20 07:59:38;;;;;;;17.12;10.18;;;10.30;47.00;;;;;;2304198;56;21088;-65
2022/03/20 08:02:05;;;;;;;16.30;10.15;;;10.30;47.10;;;;;;2304578;56;21099;-66
2022/03/20 08:04:31;;;;;;;16.85;10.73;;;10.30;47.20;;;;;;2338064;53;21002;-64
2022/03/20 08:07:01;;;;;;;18.45;11.23;;;10.30;47.30;;;;;;2283376;55;21065;-64
2022/03/20 08:09:28;;;;;;;17.90;11.27;;;10.30;47.20;;;;;;2304428;55;20949;-67
2022/03/20 08:12:24;;;;;;;18.05;11.73;;;10.30;47.20;;;;;;2305899;55;21017;-63
2022/03/20 08:14:59;;;;;;;14.25;9.00;;;10.30;47.60;;;;;;2299535;54;21001;-64
2022/03/20 08:17:44;;;;;;;16.35;10.80;;;10.30;47.10;;;;;;2277330;55;21022;-66
2022/03/20 08:20:12;;;;;;;16.73;11.20;;;10.30;47.60;;;;;;2289127;55;20942;-66
2022/03/20 08:22:38;;;;;;;16.02;10.13;;;10.30;47.30;;;;;;2476909;54;21797;-65
2022/03/20 08:25:05;;;;;;;15.32;10.07;;;10.30;47.30;;;;;;2304282;55;21020;-65
2022/03/20 08:31:12;;;;;;;13.90;9.02;;;10.40;48.00;;;;;;2304493;55;21073;-64
2022/03/20 08:33:40;;;;;;;16.10;9.93;;;10.40;47.60;;;;;;2305672;55;20942;-66
2022/03/20 08:36:07;;;;;;;16.02;10.32;;;10.50;47.90;;;;;;2296670;55;20954;-64
2022/03/20 08:38:33;;;;;;;14.75;9.43;;;10.50;48.00;;;;;;2275005;55;20948;-66
2022/03/20 08:41:01;;;;;;;16.12;10.18;;;10.60;48.10;;;;;;2295161;55;21049;-63
2022/03/20 08:43:27;;;;;;;32.33;16.37;;;10.60;48.30;;;;;;2298487;55;21082;-65
2022/03/20 08:49:06;;;;;;;26.05;12.95;;;10.80;48.80;;;;;;2351543;54;22373;-64
2022/03/20 08:51:34;;;;;;;26.75;13.68;;;10.90;48.80;;;;;;2307531;54;21025;-64
2022/03/20 08:54:02;;;;;;;20.55;12.73;;;11.10;49.10;;;;;;2279852;55;21011;-64
2022/03/20 08:59:56;;;;;;;17.20;9.90;;;11.30;49.90;;;;;;2314225;54;21144;-67
2022/03/20 09:02:23;;;;;;;17.05;10.27;;;11.50;49.60;;;;;;2298395;55;20993;-64
2022/03/20 09:04:52;;;;;;;20.50;10.10;;;11.70;50.00;;;;;;2304182;54;20964;-66
2022/03/20 09:07:19;;;;;;;16.48;9.93;;;11.90;50.50;;;;;;2298389;55;21138;-66
2022/03/20 09:09:52;;;;;;;16.30;9.52;;;12.20;51.40;;;;;;2285967;56;20977;-66
2022/03/20 09:12:20;;;;;;;15.15;9.48;;;12.50;52.40;;;;;;2372365;53;20985;-66
2022/03/20 09:15:12;;;;;;;16.25;9.68;;;12.90;52.60;;;;;;2304038;56;21019;-66
2022/03/20 09:20:36;;;;;;;14.32;9.18;;;13.80;52.20;;;;;;2303062;56;21119;-65
2022/03/20 09:23:10;;;;;;;13.10;8.70;;;14.20;51.80;;;;;;2300201;55;21416;-65
2022/03/20 09:25:36;;;;;;;13.48;9.95;;;14.60;52.10;;;;;;2281639;55;21014;-68
2022/03/20 09:28:05;;;;;;;14.87;10.35;;;15.00;52.50;;;;;;2292105;55;21054;-65
2022/03/20 09:30:38;;;;;;;13.38;9.52;;;15.40;52.40;;;;;;2276031;55;21235;-66
2022/03/20 09:33:17;;;;;;;16.50;10.27;;;15.90;52.10;;;;;;2293216;56;20953;-66
2022/03/20 09:36:05;;;;;;;14.15;9.05;;;16.30;51.90;;;;;;2300856;56;20961;-69
2022/03/20 09:38:31;;;;;;;13.43;8.45;;;16.90;51.30;;;;;;2304063;55;20917;-65
2022/03/20 09:40:59;;;;;;;14.38;9.07;;;17.30;51.10;;;;;;2377840;53;21021;-67
2022/03/20 09:43:26;;;;;;;16.42;8.90;;;17.60;50.70;;;;;;2300310;55;21057;-67
2022/03/20 09:45:53;;;;;;;13.85;8.57;;;18.00;50.10;;;;;;2286632;54;20987;-66
2022/03/20 09:48:32;;;;;;;12.05;7.87;;;18.20;49.50;;;;;;2284906;55;21020;-66
2022/03/20 09:50:59;;;;;;;10.30;7.37;;;18.50;49.10;;;;;;2281593;56;21004;-67
2022/03/20 09:53:25;;;;;;;13.07;8.32;;;18.70;49.50;;;;;;2306494;54;21033;-66
2022/03/20 09:55:55;;;;;;;12.05;8.32;;;19.00;49.40;;;;;;2282908;55;20987;-66
2022/03/20 09:58:28;;;;;;;10.68;7.75;;;19.20;49.20;;;;;;2300230;56;21021;-66
2022/03/20 10:01:05;;;;;;;;;;;;;;;;;;;;;
2022/03/20 10:03:35;;;;;;;12.48;7.35;;;19.70;48.60;;;;;;2402592;54;21053;-66
2022/03/20 10:06:19;;;;;;;11.52;7.55;;;19.90;48.40;;;;;;2284819;55;21000;-66
2022/03/20 10:09:02;;;;;;;12.63;7.40;;;20.10;47.70;;;;;;2287657;55;21416;-66
2022/03/20 10:11:29;;;;;;;12.60;7.40;;;20.30;47.30;;;;;;2301193;54;20948;-67
2022/03/20 10:15:09;;;;;;;10.60;7.30;;;20.50;47.40;;;;;;2319645;54;21950;-68
2022/03/20 10:18:15;;;;;;;10.00;6.57;;;20.70;47.10;;;;;;2305354;56;21395;-66
2022/03/20 10:20:52;;;;;;;10.43;7.10;;;20.90;46.80;;;;;;2301369;55;21053;-67
2022/03/20 10:23:39;;;;;;;10.02;6.72;;;21.10;46.40;;;;;;2282362;55;21001;-67
2022/03/20 10:26:14;;;;;;;10.70;6.68;;;21.30;45.90;;;;;;2282068;55;20995;-68
2022/03/20 10:28:48;;;;;;;9.90;7.03;;;21.40;46.00;;;;;;2277181;55;20987;-67
2022/03/20 10:31:17;;;;;;;10.43;6.97;;;21.60;45.90;;;;;;2282123;55;21109;-68
2022/03/20 10:33:50;;;;;;;12.63;8.05;;;21.70;45.50;;;;;;2280799;56;21091;-66
2022/03/20 10:36:20;;;;;;;10.93;7.32;;;21.80;44.80;;;;;;2281108;55;21807;-67
2022/03/20 10:38:48;;;;;;;15.07;9.02;;;21.90;44.40;;;;;;2314846;55;20931;-66
2022/03/20 10:41:26;;;;;;;14.90;8.30;;;22.00;43.80;;;;;;2269759;56;20942;-68
2022/03/20 10:43:56;;;;;;;12.70;8.18;;;22.10;43.50;;;;;;2254312;56;21042;-67
2022/03/20 10:46:27;;;;;;;14.50;8.35;;;22.10;43.30;;;;;;2279962;56;21025;-67
2022/03/20 10:48:56;;;;;;;12.95;7.65;;;22.10;43.40;;;;;;2282816;55;20998;-67
2022/03/20 10:51:41;;;;;;;12.77;8.10;;;22.10;44.10;;;;;;2275801;55;21867;-66
2022/03/20 10:54:15;;;;;;;12.27;8.23;;;22.20;43.30;;;;;;2291029;55;20915;-68
2022/03/20 10:56:58;;;;;;;12.00;7.37;;;22.30;43.50;;;;;;2281901;55;21050;-67
2022/03/20 10:59:26;;;;;;;11.70;7.30;;;22.40;43.30;;;;;;2281176;55;21004;-67
2022/03/20 11:01:53;;;;;;;11.25;7.05;;;22.40;43.50;;;;;;2328406;55;20959;-67
2022/03/20 11:04:25;;;;;;;8.95;6.45;;;22.50;43.40;;;;;;2278736;56;21047;-66
2022/03/20 11:06:57;;;;;;;11.48;6.82;;;22.50;43.00;;;;;;2281544;55;21047;-67
2022/03/20 11:09:26;;;;;;;9.10;5.40;;;22.60;42.80;;;;;;2260975;55;21014;-67
2022/03/20 11:12:40;;;;;;;8.75;5.85;;;22.60;42.00;;;;;;2285655;55;21809;-68
2022/03/20 11:15:13;;;;;;;9.00;5.55;;;22.70;41.20;;;;;;2275948;55;21109;-68
2022/03/20 11:17:44;;;;;;;9.23;5.82;;;22.70;41.40;;;;;;2324747;54;22259;-68
2022/03/20 11:20:18;;;;;;;11.00;6.53;;;22.70;40.60;;;;;;2338848;54;21512;-67
2022/03/20 11:22:49;;;;;;;9.48;6.32;;;22.70;40.30;;;;;;2312746;55;21414;-68
2022/03/20 11:25:31;;;;;;;9.90;6.65;;;22.70;39.80;;;;;;2268383;55;21703;-67
2022/03/20 11:28:03;;;;;;;10.82;6.70;;;22.60;39.00;;;;;;2273383;56;21001;-68
2022/03/20 11:30:31;;;;;;;9.50;6.03;;;22.60;39.50;;;;;;2272353;55;21623;-68
2022/03/20 11:33:00;;;;;;;8.52;4.95;;;22.60;39.10;;;;;;2252530;55;21372;-68
2022/03/20 11:35:34;;;;;;;11.48;6.00;;;22.60;39.20;;;;;;2287490;54;21145;-67
2022/03/20 11:40:08;;;;;;;8.38;5.43;;;22.60;39.00;;;;;;2289922;55;20982;-67
2022/03/20 11:42:35;;;;;;;8.50;5.62;;;22.50;38.80;;;;;;2281161;56;20958;-67
2022/03/20 11:45:17;;;;;;;9.45;5.95;;;22.50;38.70;;;;;;2280184;56;21541;-68
2022/03/20 11:48:15;;;;;;;8.77;5.82;;;22.50;37.90;;;;;;2274959;55;20996;-67
2022/03/20 11:50:46;;;;;;;8.05;5.45;;;22.50;37.50;;;;;;2278786;56;20991;-68
2022/03/20 11:53:17;;;;;;;7.07;4.80;;;22.50;38.30;;;;;;2259829;55;21073;-68
2022/03/20 11:55:51;;;;;;;8.70;5.37;;;22.50;38.20;;;;;;2282003;54;20954;-68
2022/03/20 11:58:40;;;;;;;10.10;6.47;;;22.60;37.60;;;;;;2275577;55;21073;-68
2022/03/20 12:01:33;;;;;;;11.15;6.12;;;22.60;36.80;;;;;;2272816;55;21011;-68
2022/03/20 12:04:04;;;;;;;9.65;6.00;;;22.70;36.90;;;;;;2253350;55;21070;-67
2022/03/20 12:07:10;;;;;;;10.18;6.25;;;22.70;37.20;;;;;;2280528;55;21060;-67
2022/03/20 12:09:59;;;;;;;9.77;5.70;;;22.70;36.30;;;;;;2258427;55;21009;-68
2022/03/20 12:15:56;;;;;;;10.02;5.25;;;22.80;36.70;;;;;;2308769;53;21399;-68
2022/03/20 12:18:25;;;;;;;9.48;5.68;;;22.90;37.40;;;;;;2280653;55;20979;-68
2022/03/20 12:21:04;;;;;;;7.72;5.30;;;23.00;37.40;;;;;;2300156;54;20985;-66
2022/03/20 12:23:43;;;;;;;9.70;5.85;;;23.10;36.80;;;;;;2368247;54;20936;-68
2022/03/20 12:26:30;;;;;;;7.45;5.57;;;23.20;36.50;;;;;;2315190;55;21098;-66
2022/03/20 12:35:47;;;;;;;10.73;6.40;;;23.20;36.30;;;;;;2322692;54;21056;-68
2022/03/20 12:45:03;;;;;;;6.30;3.58;;;23.50;37.80;;;;;;2303306;56;21085;-67
2022/03/20 12:47:31;;;;;;;7.80;3.47;;;23.80;37.70;;;;;;2390842;54;21089;-68
2022/03/20 12:50:15;;;;;;;7.53;4.20;;;23.90;37.20;;;;;;2303113;55;20961;-68
2022/03/20 12:52:41;;;;;;;7.40;4.47;;;24.00;36.80;;;;;;2274742;55;20959;-68
2022/03/20 12:55:09;;;;;;;6.85;4.65;;;24.00;36.60;;;;;;2269260;55;20966;-68
2022/03/20 12:57:40;;;;;;;8.13;4.93;;;24.10;36.40;;;;;;2269937;55;20942;-69
2022/03/20 13:00:20;;;;;;;8.18;5.60;;;24.10;35.70;;;;;;2278735;55;20959;-68
2022/03/20 13:03:09;;;;;;;7.12;4.72;;;24.20;35.90;;;;;;2278085;56;20983;-67
2022/03/20 13:05:47;;;;;;;6.93;4.05;;;24.30;35.30;;;;;;2245541;55;21028;-68
2022/03/20 13:08:26;;;;;;;7.37;4.72;;;24.40;35.60;;;;;;2280017;55;20955;-67
2022/03/20 13:10:57;;;;;;;7.40;4.70;;;24.50;35.40;;;;;;2283237;56;20982;-68
2022/03/20 13:13:28;;;;;;;7.07;4.97;;;24.60;35.80;;;;;;2282207;55;21598;-68
2022/03/20 13:15:55;;;;;;;8.25;5.07;;;24.70;35.40;;;;;;2298533;55;21546;-68
2022/03/20 13:18:25;;;;;;;7.97;4.60;;;24.80;35.40;;;;;;2282845;55;21180;-67
2022/03/20 13:21:11;;;;;;;7.03;4.60;;;24.90;34.90;;;;;;2293178;55;20974;-68
2022/03/20 13:23:56;;;;;;;6.82;4.47;;;24.90;34.90;;;;;;2280221;55;21014;-67
2022/03/20 13:26:32;;;;;;;6.12;3.65;;;25.00;34.70;;;;;;2281675;55;20965;-68
2022/03/20 13:28:59;;;;;;;7.65;4.10;;;25.00;34.30;;;;;;2315128;54;21068;-68
2022/03/20 13:31:29;;;;;;;7.45;4.60;;;25.00;34.60;;;;;;2294231;55;21490;-68
2022/03/20 13:34:24;;;;;;;;;;;;;;;;;;;;;
2022/03/20 13:36:50;;;;;;;8.10;4.57;;;25.10;34.10;;;;;;2305166;56;20933;-68
2022/03/20 13:39:18;;;;;;;8.90;4.55;;;25.10;33.90;;;;;;2310501;54;20936;-67
2022/03/20 13:41:45;;;;;;;6.62;4.43;;;25.20;33.90;;;;;;2387798;54;21050;-68
2022/03/20 13:44:16;;;;;;;6.93;3.85;;;25.10;33.70;;;;;;2304013;55;20961;-68
2022/03/20 13:46:46;;;;;;;5.95;3.53;;;25.20;34.30;;;;;;2300595;54;21013;-69
2022/03/20 13:49:13;;;;;;;6.47;3.85;;;25.20;33.40;;;;;;2304650;56;21036;-68
2022/03/20 13:51:49;;;;;;;7.75;3.97;;;25.20;32.70;;;;;;2305739;55;21052;-68
2022/03/20 13:54:36;;;;;;;7.70;3.62;;;25.20;32.10;;;;;;2302736;56;20973;-69
2022/03/20 13:57:11;;;;;;;6.93;3.70;;;25.20;31.50;;;;;;2305577;56;20954;-69
2022/03/20 13:59:47;;;;;;;7.10;3.97;;;25.20;31.60;;;;;;2285721;55;20957;-67
2022/03/20 14:02:16;;;;;;;8.45;4.07;;;25.20;31.10;;;;;;2302412;55;21041;-67
2022/03/20 14:04:42;;;;;;;7.90;3.70;;;25.10;31.20;;;;;;2258818;55;1534899;-67
2022/03/20 14:07:26;;;;;;;6.50;3.45;;;25.10;31.10;;;;;;2292695;54;21091;-67
2022/03/20 14:09:54;;;;;;;6.25;3.30;;;25.10;30.50;;;;;;2298130;55;21012;-67
2022/03/20 14:12:30;;;;;;;7.30;3.67;;;25.10;31.30;;;;;;2293938;55;20899;-67
2022/03/20 14:15:09;;;;;;;9.82;3.83;;;25.20;30.60;;;;;;2270930;56;21037;-68
2022/03/20 14:18:08;;;;;;;7.97;4.18;;;25.20;30.70;;;;;;2301890;56;20965;-68
2022/03/20 14:20:34;;;;;;;7.95;4.03;;;25.20;30.60;;;;;;2426154;54;21828;-68
2022/03/20 14:23:21;;;;;;;5.25;3.60;;;25.20;30.60;;;;;;2284856;55;20990;-68
2022/03/20 14:25:48;;;;;;;6.32;3.45;;;25.20;30.30;;;;;;2309721;55;20994;-69